createdAt,value
2018-09-03T00:00:38.975Z,6.20
2018-09-03T00:03:08.013Z,6.30
2018-09-03T00:05:37.111Z,6.17
2018-09-03T00:08:07.420Z,6.47
2018-09-03T00:10:36.557Z,6.07
2018-09-03T00:13:05.686Z,5.23
2018-09-03T00:15:34.754Z,6.53
2018-09-03T00:18:03.798Z,6.10
2018-09-03T00:23:27.542Z,6.63
2018-09-03T00:25:56.748Z,6.63
2018-09-03T00:28:27.587Z,5.70
2018-09-03T00:31:14.450Z,6.43
2018-09-03T00:33:48.908Z,6.13
2018-09-03T00:39:39.835Z,5.87
2018-09-03T00:42:14.215Z,6.53
2018-09-03T00:44:48.537Z,6.53
2018-09-03T00:47:17.596Z,6.07
2018-09-03T00:49:46.771Z,6.67
2018-09-03T00:52:15.880Z,6.17
2018-09-03T00:54:45.098Z,6.40
2018-09-03T00:57:14.309Z,6.07
2018-09-03T00:59:43.404Z,6.13
2018-09-03T01:02:12.564Z,6.47
2018-09-03T01:04:41.697Z,6.33
2018-09-03T01:07:10.747Z,6.83
2018-09-03T01:09:39.797Z,6.20
2018-09-03T01:12:15.491Z,6.67
2018-09-03T01:14:44.781Z,6.30
2018-09-03T01:17:13.830Z,7.00
2018-09-03T01:19:56.924Z,6.83
2018-09-03T01:22:26.646Z,6.17
2018-09-03T01:26:10.879Z,7.63
2018-09-03T01:28:49.108Z,7.10
2018-09-03T01:31:19.590Z,7.13
2018-09-03T01:33:51.876Z,6.87
2018-09-03T01:36:21.591Z,7.30
2018-09-03T01:38:50.753Z,6.47
2018-09-03T01:41:20.450Z,7.50
2018-09-03T01:43:50.566Z,6.30
2018-09-03T01:46:21.819Z,6.83
2018-09-03T01:48:50.947Z,6.70
2018-09-03T01:51:20.047Z,6.70
2018-09-03T01:53:49.116Z,7.30
2018-09-03T01:56:18.173Z,8.50
2018-09-03T01:58:49.142Z,6.90
2018-09-03T02:01:18.225Z,6.60
2018-09-03T02:03:47.328Z,6.77
2018-09-03T02:06:16.436Z,7.37
2018-09-03T02:08:45.821Z,7.10
2018-09-03T02:11:14.900Z,8.60
2018-09-03T02:13:43.957Z,7.37
2018-09-03T02:16:13.016Z,7.47
2018-09-03T02:18:42.121Z,8.07
2018-09-03T02:21:11.170Z,8.57
2018-09-03T02:23:40.208Z,7.90
2018-09-03T02:26:09.284Z,8.10
2018-09-03T02:28:38.305Z,9.17
2018-09-03T02:31:07.352Z,8.40
2018-09-03T02:33:36.450Z,7.73
2018-09-03T02:36:05.670Z,9.80
2018-09-03T02:38:34.733Z,8.30
2018-09-03T02:41:09.642Z,7.47
2018-09-03T02:43:40.834Z,8.10
2018-09-03T02:46:10.096Z,8.10
2018-09-03T02:48:41.543Z,8.60
2018-09-03T02:51:30.219Z,8.70
2018-09-03T02:54:00.064Z,8.47
2018-09-03T02:56:29.124Z,8.53
2018-09-03T02:58:58.216Z,8.30
2018-09-03T03:01:27.481Z,8.17
2018-09-03T03:03:56.786Z,7.20
2018-09-03T03:06:25.806Z,9.23
2018-09-03T03:08:54.905Z,8.57
2018-09-03T03:11:24.063Z,8.90
2018-09-03T03:13:53.114Z,8.10
2018-09-03T03:16:22.179Z,7.80
2018-09-03T03:18:51.188Z,8.10
2018-09-03T03:21:24.024Z,9.30
2018-09-03T03:23:54.765Z,8.90
2018-09-03T03:26:24.862Z,9.73
2018-09-03T03:28:55.285Z,9.27
2018-09-03T03:31:24.518Z,8.40
2018-09-03T03:34:08.161Z,8.57
2018-09-03T03:40:15.057Z,9.13
2018-09-03T03:42:44.341Z,9.30
2018-09-03T03:45:13.455Z,8.03
2018-09-03T03:47:42.532Z,8.60
2018-09-03T03:50:18.496Z,9.10
2018-09-03T03:52:47.629Z,8.90
2018-09-03T03:55:18.532Z,8.77
2018-09-03T03:57:49.085Z,9.60
2018-09-03T04:00:19.072Z,9.63
2018-09-03T04:02:48.315Z,9.63
2018-09-03T04:05:17.409Z,9.00
2018-09-03T04:07:46.582Z,9.90
2018-09-03T04:10:15.762Z,10.63
2018-09-03T04:12:50.435Z,11.00
2018-09-03T04:15:19.522Z,8.70
2018-09-03T04:17:48.660Z,9.30
2018-09-03T04:20:18.166Z,10.90
2018-09-03T04:22:47.445Z,10.47
2018-09-03T04:25:16.580Z,9.90
2018-09-03T04:27:45.841Z,9.57
2018-09-03T04:33:23.931Z,10.00
2018-09-03T04:35:53.585Z,10.50
2018-09-03T04:38:22.829Z,10.97
2018-09-03T04:40:52.419Z,8.67
2018-09-03T04:43:23.171Z,9.20
2018-09-03T04:45:56.192Z,9.97
2018-09-03T04:48:25.989Z,9.10
2018-09-03T04:50:58.673Z,9.57
2018-09-03T04:53:52.340Z,8.60
2018-09-03T04:56:22.661Z,9.03
2018-09-03T04:58:54.556Z,9.23
2018-09-03T05:01:49.597Z,9.23
2018-09-03T05:07:25.820Z,8.30
2018-09-03T05:09:55.533Z,9.03
2018-09-03T05:12:28.409Z,8.00
2018-09-03T05:14:57.743Z,8.47
2018-09-03T05:17:57.145Z,7.83
2018-09-03T05:20:27.567Z,7.87
2018-09-03T05:22:57.459Z,7.90
2018-09-03T05:25:40.652Z,7.60
2018-09-03T05:28:09.742Z,7.40
2018-09-03T05:30:41.406Z,7.60
2018-09-03T05:33:11.162Z,7.57
2018-09-03T05:35:41.911Z,6.83
2018-09-03T05:38:11.098Z,6.60
2018-09-03T05:40:40.164Z,6.77
2018-09-03T05:43:29.424Z,7.77
2018-09-03T05:45:58.937Z,6.20
2018-09-03T05:48:32.276Z,6.93
2018-09-03T05:51:30.728Z,8.57
2018-09-03T05:54:00.516Z,6.67
2018-09-03T05:56:38.984Z,7.23
2018-09-03T05:59:09.282Z,7.83
2018-09-03T06:01:38.882Z,6.20
2018-09-03T06:04:08.049Z,6.70
2018-09-03T06:06:39.322Z,6.33
2018-09-03T06:09:11.203Z,7.10
2018-09-03T06:12:03.491Z,6.77
2018-09-03T06:14:32.895Z,6.07
2018-09-03T06:17:03.232Z,6.77
2018-09-03T06:19:32.512Z,6.53
2018-09-03T06:22:05.808Z,6.90
2018-09-03T06:24:35.328Z,7.10
2018-09-03T06:30:09.305Z,7.27
2018-09-03T06:32:38.590Z,6.93
2018-09-03T06:35:08.096Z,7.00
2018-09-03T06:37:41.007Z,6.53
2018-09-03T06:43:46.971Z,7.30
2018-09-03T06:46:19.927Z,6.60
2018-09-03T06:51:39.472Z,5.80
2018-09-03T06:57:08.073Z,6.30
2018-09-03T06:59:37.169Z,7.43
2018-09-03T07:02:08.481Z,7.43
2018-09-03T07:05:24.729Z,5.67
2018-09-03T07:07:54.046Z,7.60
2018-09-03T07:13:22.437Z,6.70
2018-09-03T07:15:56.105Z,8.10
2018-09-03T07:18:38.027Z,6.90
2018-09-03T07:21:17.365Z,7.60
2018-09-03T07:23:49.484Z,7.27
2018-09-03T07:26:18.672Z,7.60
2018-09-03T07:32:10.785Z,7.37
2018-09-03T07:34:40.651Z,6.90
2018-09-03T07:37:11.592Z,7.40
2018-09-03T07:39:40.717Z,6.60
2018-09-03T07:42:10.115Z,7.57
2018-09-03T07:44:41.019Z,7.30
2018-09-03T07:50:24.784Z,6.87
2018-09-03T07:52:54.258Z,6.57
2018-09-03T07:55:24.579Z,8.00
2018-09-03T07:57:54.839Z,7.73
2018-09-03T08:00:24.852Z,6.23
2018-09-03T08:02:54.206Z,6.50
2018-09-03T08:08:24.020Z,6.77
2018-09-03T08:11:03.859Z,7.27
2018-09-03T08:16:19.285Z,6.17
2018-09-03T08:18:48.580Z,7.17
2018-09-03T08:21:17.867Z,6.70
2018-09-03T08:23:47.625Z,7.57
2018-09-03T08:26:17.154Z,6.70
2018-09-03T08:28:48.851Z,6.93
2018-09-03T08:31:18.885Z,8.20
2018-09-03T08:33:48.028Z,7.20
2018-09-03T08:36:17.135Z,8.20
2018-09-03T08:38:46.691Z,6.63
2018-09-03T08:41:16.571Z,6.53
2018-09-03T08:43:46.054Z,6.83
2018-09-03T08:46:26.228Z,7.20
2018-09-03T08:48:55.660Z,6.63
2018-09-03T08:51:25.528Z,7.37
2018-09-03T08:54:01.699Z,7.20
2018-09-03T08:56:38.295Z,6.87
2018-09-03T08:59:08.009Z,6.70
2018-09-03T09:01:37.180Z,6.20
2018-09-03T09:04:25.489Z,7.03
2018-09-03T09:06:54.598Z,7.10
2018-09-03T09:09:23.681Z,6.80
2018-09-03T09:11:52.887Z,6.53
2018-09-03T09:22:41.391Z,7.70
2018-09-03T09:25:10.675Z,7.10
2018-09-03T09:27:39.789Z,8.37
2018-09-03T09:30:09.612Z,7.93
2018-09-03T09:35:44.002Z,7.10
2018-09-03T09:44:16.445Z,7.40
2018-09-03T09:47:49.580Z,7.77
2018-09-03T09:53:33.580Z,8.00
2018-09-03T09:56:31.676Z,9.87
2018-09-03T09:59:13.268Z,7.90
2018-09-03T10:01:55.617Z,9.60
2018-09-03T10:04:54.576Z,8.53
2018-09-03T10:07:23.686Z,8.60
2018-09-03T10:09:52.970Z,9.60
2018-09-03T10:12:39.512Z,10.40
2018-09-03T10:15:08.564Z,8.90
2018-09-03T10:17:37.726Z,9.33
2018-09-03T10:24:20.617Z,9.73
2018-09-03T10:26:50.479Z,9.10
2018-09-03T10:29:19.872Z,8.80
2018-09-03T10:31:49.258Z,8.67
2018-09-03T10:34:24.829Z,9.73
2018-09-03T10:36:53.917Z,8.53
2018-09-03T10:39:22.966Z,8.17
2018-09-03T10:41:52.278Z,9.13
2018-09-03T10:44:21.463Z,10.30
2018-09-03T10:46:50.637Z,8.37
2018-09-03T10:49:20.168Z,9.50
2018-09-03T10:51:49.619Z,9.67
2018-09-03T10:54:18.854Z,10.50
2018-09-03T10:56:48.170Z,10.27
2018-09-03T10:59:17.361Z,10.00
2018-09-03T11:01:46.474Z,9.97
2018-09-03T11:04:15.649Z,9.53
2018-09-03T11:06:44.806Z,8.70
2018-09-03T11:09:13.963Z,9.70
2018-09-03T11:11:43.028Z,10.13
2018-09-03T11:14:12.216Z,9.30
2018-09-03T11:16:41.319Z,9.50
2018-09-03T11:19:10.419Z,8.50
2018-09-03T11:21:39.698Z,10.07
2018-09-03T11:24:08.661Z,10.90
2018-09-03T11:26:37.789Z,9.90
2018-09-03T11:29:06.899Z,9.50
2018-09-03T11:31:36.033Z,9.50
2018-09-03T11:34:05.215Z,11.17
2018-09-03T11:36:34.729Z,10.53
2018-09-03T11:39:05.417Z,9.70
2018-09-03T11:41:34.610Z,10.77
2018-09-03T11:44:10.172Z,10.50
2018-09-03T11:46:39.346Z,10.30
2018-09-03T11:49:08.414Z,10.60
2018-09-03T11:51:37.749Z,10.87
2018-09-03T11:54:07.127Z,9.73
2018-09-03T11:56:36.337Z,11.03
2018-09-03T11:59:05.483Z,10.57
2018-09-03T12:01:34.893Z,10.10
2018-09-03T12:04:04.614Z,11.00
2018-09-03T12:06:33.838Z,8.97
2018-09-03T12:09:03.019Z,10.13
2018-09-03T12:11:34.348Z,9.83
2018-09-03T12:14:07.899Z,10.73
2018-09-03T12:16:38.268Z,10.93
2018-09-03T12:19:07.480Z,10.57
2018-09-03T12:21:36.836Z,10.93
2018-09-03T12:24:06.188Z,12.20
2018-09-03T12:26:35.515Z,10.93
2018-09-03T12:29:04.975Z,11.70
2018-09-03T12:31:34.291Z,11.63
2018-09-03T12:34:03.711Z,10.80
2018-09-03T12:36:33.055Z,11.53
2018-09-03T12:39:03.349Z,9.70
2018-09-03T12:41:32.509Z,11.70
2018-09-03T12:44:01.636Z,10.80
2018-09-03T12:46:30.809Z,10.63
2018-09-03T12:49:00.007Z,10.70
2018-09-03T12:51:29.102Z,10.83
2018-09-03T12:53:58.516Z,11.23
2018-09-03T12:56:27.599Z,12.13
2018-09-03T12:58:56.720Z,11.57
2018-09-03T13:01:25.888Z,11.53
2018-09-03T13:03:54.983Z,11.73
2018-09-03T13:06:24.196Z,11.17
2018-09-03T13:08:53.353Z,11.83
2018-09-03T13:11:22.555Z,12.20
2018-09-03T13:13:51.864Z,11.90
2018-09-03T13:16:21.258Z,13.00
2018-09-03T13:18:50.510Z,12.40
2018-09-03T13:21:19.597Z,11.67
2018-09-03T13:23:48.879Z,11.40
2018-09-03T13:26:18.094Z,12.10
2018-09-03T13:28:47.487Z,12.87
2018-09-03T13:31:16.898Z,14.27
2018-09-03T13:33:46.405Z,12.50
2018-09-03T13:36:16.243Z,13.23
2018-09-03T13:38:45.560Z,12.73
2018-09-03T13:41:14.836Z,13.40
2018-09-03T13:43:44.775Z,13.50
2018-09-03T13:46:14.290Z,12.90
2018-09-03T13:48:43.519Z,11.60
2018-09-03T13:51:12.700Z,12.20
2018-09-03T13:53:41.852Z,11.70
2018-09-03T13:56:10.991Z,12.67
2018-09-03T13:58:40.079Z,12.53
2018-09-03T14:01:09.147Z,13.23
2018-09-03T14:03:38.196Z,13.10
2018-09-03T14:06:07.396Z,13.53
2018-09-03T14:08:37.232Z,12.50
2018-09-03T14:11:06.558Z,13.10
2018-09-03T14:13:35.629Z,13.30
2018-09-03T14:16:04.824Z,12.40
2018-09-03T14:18:33.932Z,12.37
2018-09-03T14:21:03.083Z,12.80
2018-09-03T14:23:32.310Z,12.77
2018-09-03T14:26:01.473Z,11.50
2018-09-03T14:28:30.687Z,13.90
2018-09-03T14:31:00.566Z,11.77
2018-09-03T14:33:29.852Z,11.77
2018-09-03T14:35:59.096Z,12.57
2018-09-03T14:38:28.671Z,12.80
2018-09-03T14:40:57.927Z,12.90
2018-09-03T14:43:27.911Z,11.63
2018-09-03T14:45:57.097Z,13.43
2018-09-03T14:48:27.342Z,12.27
2018-09-03T14:50:56.638Z,13.87
2018-09-03T14:53:26.458Z,11.27
2018-09-03T14:55:56.560Z,13.73
2018-09-03T14:58:26.419Z,12.87
2018-09-03T15:00:55.535Z,12.93
2018-09-03T15:03:24.705Z,13.33
2018-09-03T15:05:53.949Z,12.87
2018-09-03T15:08:23.081Z,12.70
2018-09-03T15:10:52.106Z,10.93
2018-09-03T15:13:21.505Z,13.70
2018-09-03T15:15:51.299Z,12.03
2018-09-03T15:18:21.393Z,12.57
2018-09-03T15:23:28.795Z,12.80
2018-09-03T15:25:58.272Z,14.17
2018-09-03T15:28:40.934Z,13.27
2018-09-03T15:31:10.226Z,13.90
2018-09-03T15:33:39.365Z,12.13
2018-09-03T15:36:11.372Z,12.50
2018-09-03T15:38:41.300Z,12.07
2018-09-03T15:41:10.968Z,11.93
2018-09-03T15:43:40.138Z,13.17
2018-09-03T15:46:10.077Z,12.53
2018-09-03T15:48:39.325Z,12.27
2018-09-03T15:51:08.408Z,12.30
2018-09-03T15:53:37.921Z,12.07
2018-09-03T15:56:07.377Z,11.80
2018-09-03T15:58:36.649Z,11.83
2018-09-03T16:01:17.784Z,9.23
2018-09-03T16:03:46.942Z,10.63
2018-09-03T16:06:16.384Z,8.53
2018-09-03T16:10:19.330Z,10.43
2018-09-03T16:12:48.474Z,9.50
2018-09-03T16:15:17.774Z,9.40
2018-09-03T16:17:49.187Z,9.30
2018-09-03T16:20:18.553Z,9.50
2018-09-03T16:22:48.272Z,10.10
2018-09-03T16:28:36.546Z,9.03
2018-09-03T16:31:06.201Z,9.70
2018-09-03T16:33:35.623Z,9.97
2018-09-03T16:36:04.900Z,9.60
2018-09-03T16:38:34.260Z,9.13
2018-09-03T16:41:04.363Z,9.70
2018-09-03T16:44:00.156Z,8.20
2018-09-03T16:46:38.045Z,9.00
2018-09-03T16:49:07.337Z,9.63
2018-09-03T16:51:36.829Z,9.10
2018-09-03T16:54:12.072Z,9.00
2018-09-03T16:56:46.063Z,8.63
2018-09-03T16:59:15.590Z,6.90
2018-09-03T17:01:44.804Z,7.30
2018-09-03T17:04:16.383Z,8.57
2018-09-03T17:06:46.291Z,7.97
2018-09-03T17:09:17.466Z,8.13
2018-09-03T17:11:50.232Z,6.87
2018-09-03T17:14:19.828Z,7.50
2018-09-03T17:16:49.489Z,7.33
2018-09-03T17:19:18.708Z,7.80
2018-09-03T17:21:47.959Z,7.87
2018-09-03T17:24:20.860Z,8.03
2018-09-03T17:26:50.055Z,6.90
2018-09-03T17:29:19.386Z,7.90
2018-09-03T17:31:48.530Z,7.90
2018-09-03T17:34:17.621Z,7.50
2018-09-03T17:36:46.791Z,7.53
2018-09-03T17:39:15.855Z,6.70
2018-09-03T17:41:44.945Z,7.90
2018-09-03T17:44:14.112Z,7.50
2018-09-03T17:46:43.236Z,8.53
2018-09-03T17:49:12.261Z,7.20
2018-09-03T17:51:41.373Z,7.57
2018-09-03T17:54:10.477Z,7.50
2018-09-03T17:56:39.519Z,7.40
2018-09-03T17:59:08.747Z,8.00
2018-09-03T18:01:37.873Z,8.07
2018-09-03T18:04:06.930Z,7.80
2018-09-03T18:06:36.205Z,9.70
2018-09-03T18:09:06.278Z,7.20
2018-09-03T18:11:35.348Z,7.20
2018-09-03T18:14:04.649Z,7.20
2018-09-03T18:16:34.106Z,6.10
2018-09-03T18:19:03.461Z,7.40
2018-09-03T18:21:32.811Z,8.37
2018-09-03T18:24:02.171Z,8.30
2018-09-03T18:26:31.412Z,7.27
2018-09-03T18:29:00.903Z,7.67
2018-09-03T18:31:30.528Z,6.97
2018-09-03T18:34:00.635Z,7.30
2018-09-03T18:36:30.504Z,7.10
2018-09-03T18:39:02.179Z,7.10
2018-09-03T18:41:33.908Z,6.40
2018-09-03T18:44:03.648Z,7.20
2018-09-03T18:46:33.250Z,7.47
2018-09-03T18:49:03.736Z,6.93
2018-09-03T18:51:34.165Z,7.97
2018-09-03T18:54:03.949Z,6.73
2018-09-03T18:56:33.886Z,8.00
2018-09-03T18:59:03.364Z,8.50
2018-09-03T19:01:32.744Z,6.53
2018-09-03T19:04:02.143Z,6.60
2018-09-03T19:06:31.274Z,7.47
2018-09-03T19:09:01.089Z,7.57
2018-09-03T19:11:30.323Z,6.93
2018-09-03T19:13:59.584Z,7.20
2018-09-03T19:16:29.129Z,7.60
2018-09-03T19:18:58.520Z,7.10
2018-09-03T19:21:28.424Z,6.57
2018-09-03T19:23:57.997Z,7.10
2018-09-03T19:26:27.220Z,7.47
2018-09-03T19:28:56.454Z,7.07
2018-09-03T19:31:25.781Z,6.80
2018-09-03T19:33:55.738Z,8.50
2018-09-03T19:36:25.657Z,6.27
2018-09-03T19:38:55.658Z,7.80
2018-09-03T19:41:25.044Z,6.37
2018-09-03T19:43:55.618Z,6.63
2018-09-03T19:46:24.832Z,7.17
2018-09-03T19:48:54.105Z,6.53
2018-09-03T19:51:23.486Z,7.43
2018-09-03T19:53:53.076Z,6.43
2018-09-03T19:56:22.289Z,6.43
2018-09-03T19:58:51.679Z,6.37
2018-09-03T20:01:20.958Z,7.40
2018-09-03T20:03:50.232Z,6.20
2018-09-03T20:06:20.292Z,6.53
2018-09-03T20:08:49.711Z,6.70
2018-09-03T20:11:19.058Z,6.80
2018-09-03T20:13:49.438Z,7.37
2018-09-03T20:16:19.039Z,6.83
2018-09-03T20:18:48.495Z,7.20
2018-09-03T20:21:17.846Z,6.90
2018-09-03T20:23:47.163Z,6.70
2018-09-03T20:26:16.462Z,7.87
2018-09-03T20:28:45.628Z,7.10
2018-09-03T20:31:14.882Z,6.30
2018-09-03T20:33:44.129Z,7.30
2018-09-03T20:36:13.333Z,7.37
2018-09-03T20:38:42.591Z,7.33
2018-09-03T20:41:11.860Z,6.17
2018-09-03T20:43:41.082Z,7.00
2018-09-03T20:46:10.242Z,7.00
2018-09-03T20:48:39.463Z,7.77
2018-09-03T20:51:08.650Z,6.80
2018-09-03T20:53:37.791Z,6.40
2018-09-03T20:56:07.069Z,5.67
2018-09-03T20:58:36.294Z,6.70
2018-09-03T21:01:05.569Z,6.63
2018-09-03T21:03:34.725Z,6.20
2018-09-03T21:06:03.997Z,5.90
2018-09-03T21:08:33.184Z,6.00
2018-09-03T21:11:02.817Z,5.97
2018-09-03T21:13:53.445Z,6.33
2018-09-03T21:16:28.566Z,7.00
2018-09-03T21:19:03.804Z,6.60
2018-09-03T21:31:21.648Z,5.40
2018-09-03T21:33:50.731Z,6.30
2018-09-03T21:36:19.815Z,5.07
2018-09-03T21:38:48.995Z,5.20
2018-09-03T21:41:18.062Z,6.00
2018-09-03T21:43:47.272Z,5.57
2018-09-03T21:46:16.310Z,6.00
2018-09-03T21:48:45.394Z,5.93
2018-09-03T21:51:18.786Z,5.30
2018-09-03T21:53:48.121Z,6.00
2018-09-03T21:56:17.195Z,5.80
2018-09-03T21:58:46.280Z,5.33
2018-09-03T22:01:15.379Z,4.83
2018-09-03T22:03:44.441Z,5.93
2018-09-03T22:06:13.542Z,5.23
2018-09-03T22:08:42.708Z,5.73
2018-09-03T22:11:11.729Z,5.30
2018-09-03T22:13:40.918Z,4.90
2018-09-03T22:16:10.110Z,4.93
2018-09-03T22:18:39.979Z,5.80
2018-09-03T22:21:09.191Z,5.83
2018-09-03T22:23:43.503Z,6.17
2018-09-03T22:26:12.808Z,5.30
2018-09-03T22:28:41.982Z,5.50
2018-09-03T22:31:11.488Z,5.20
2018-09-03T22:33:40.780Z,4.57
2018-09-03T22:36:10.042Z,4.97
2018-09-03T22:38:39.230Z,6.13
2018-09-03T22:41:08.432Z,5.83
2018-09-03T22:43:37.543Z,5.23
2018-09-03T22:46:06.679Z,5.40
2018-09-03T22:48:35.692Z,5.37
2018-09-03T22:51:04.764Z,4.90
2018-09-03T22:53:34.673Z,5.50
2018-09-03T22:56:04.414Z,6.20
2018-09-03T22:58:34.447Z,5.70
2018-09-03T23:01:03.673Z,4.77
2018-09-03T23:03:32.748Z,5.10
2018-09-03T23:06:01.816Z,5.37
2018-09-03T23:08:30.954Z,4.87
2018-09-03T23:11:00.067Z,5.27
2018-09-03T23:13:29.251Z,5.60
2018-09-03T23:15:58.360Z,5.67
2018-09-03T23:18:27.443Z,5.67
2018-09-03T23:20:56.577Z,5.10
2018-09-03T23:23:25.744Z,5.13
2018-09-03T23:25:54.814Z,5.47
2018-09-03T23:28:24.129Z,5.03
2018-09-03T23:30:53.253Z,4.83
2018-09-03T23:33:22.368Z,5.23
2018-09-03T23:35:51.624Z,5.13
2018-09-03T23:38:20.981Z,5.60
2018-09-03T23:40:50.148Z,5.43
2018-09-03T23:43:19.394Z,5.50
2018-09-03T23:45:48.549Z,6.20
2018-09-03T23:48:17.604Z,6.13
2018-09-03T23:50:46.705Z,5.43
2018-09-03T23:53:15.792Z,5.00
2018-09-03T23:55:44.893Z,5.70
2018-09-03T23:58:13.984Z,5.00
